sensor_id;sensor_type;location;lat;lon;timestamp;P1;durP1;ratioP1;P2;durP2;ratioP2
21671;SDS011;10997;52.242;8.168;2024-02-16T00:00:29;48.63;;;22.13;;
21671;SDS011;10997;52.242;8.168;2024-02-16T00:05:30;14.38;;;6.03;;
21671;SDS011;10997;52.242;8.168;2024-02-16T00:10:30;31.92;;;14.27;;
21671;SDS011;10997;52.242;8.168;2024-02-16T00:15:31;18.73;;;7.70;;
21671;SDS011;10997;52.242;8.168;2024-02-16T00:20:32;21.77;;;8.30;;
21671;SDS011;10997;52.242;8.168;2024-02-16T00:25:32;37.67;;;15.07;;
21671;SDS011;10997;52.242;8.168;2024-02-16T00:30:33;24.13;;;10.30;;
21671;SDS011;10997;52.242;8.168;2024-02-16T00:35:33;8.32;;;4.57;;
21671;SDS011;10997;52.242;8.168;2024-02-16T00:40:34;10.07;;;3.80;;
21671;SDS011;10997;52.242;8.168;2024-02-16T00:45:35;9.50;;;3.20;;
21671;SDS011;10997;52.242;8.168;2024-02-16T00:50:35;9.40;;;2.80;;
21671;SDS011;10997;52.242;8.168;2024-02-16T00:55:36;7.85;;;2.83;;
21671;SDS011;10997;52.242;8.168;2024-02-16T01:00:38;6.68;;;2.50;;
21671;SDS011;10997;52.242;8.168;2024-02-16T01:05:39;7.15;;;2.30;;
21671;SDS011;10997;52.242;8.168;2024-02-16T01:10:42;6.05;;;2.47;;
21671;SDS011;10997;52.242;8.168;2024-02-16T01:15:45;3.67;;;2.22;;
21671;SDS011;10997;52.242;8.168;2024-02-16T01:20:46;6.35;;;2.55;;
21671;SDS011;10997;52.242;8.168;2024-02-16T01:25:47;8.18;;;2.42;;
21671;SDS011;10997;52.242;8.168;2024-02-16T01:30:48;7.28;;;2.40;;
21671;SDS011;10997;52.242;8.168;2024-02-16T01:35:49;5.35;;;2.20;;
21671;SDS011;10997;52.242;8.168;2024-02-16T01:40:50;5.78;;;2.10;;
21671;SDS011;10997;52.242;8.168;2024-02-16T01:45:50;4.32;;;2.30;;
21671;SDS011;10997;52.242;8.168;2024-02-16T01:50:52;6.40;;;2.15;;
21671;SDS011;10997;52.242;8.168;2024-02-16T01:55:54;4.10;;;2.10;;
21671;SDS011;10997;52.242;8.168;2024-02-16T02:00:54;5.30;;;2.30;;
21671;SDS011;10997;52.242;8.168;2024-02-16T02:05:55;4.47;;;2.00;;
21671;SDS011;10997;52.242;8.168;2024-02-16T02:10:56;5.82;;;2.13;;
21671;SDS011;10997;52.242;8.168;2024-02-16T02:15:57;3.33;;;2.00;;
21671;SDS011;10997;52.242;8.168;2024-02-16T02:20:59;10.10;;;1.98;;
21671;SDS011;10997;52.242;8.168;2024-02-16T02:26:00;4.80;;;1.88;;
21671;SDS011;10997;52.242;8.168;2024-02-16T02:31:01;5.60;;;2.00;;
21671;SDS011;10997;52.242;8.168;2024-02-16T02:36:03;4.60;;;2.28;;
21671;SDS011;10997;52.242;8.168;2024-02-16T02:41:05;5.10;;;2.25;;
21671;SDS011;10997;52.242;8.168;2024-02-16T02:46:05;6.63;;;1.88;;
21671;SDS011;10997;52.242;8.168;2024-02-16T02:51:06;4.00;;;2.17;;
21671;SDS011;10997;52.242;8.168;2024-02-16T02:56:07;4.40;;;1.80;;
21671;SDS011;10997;52.242;8.168;2024-02-16T03:01:08;4.15;;;1.95;;
21671;SDS011;10997;52.242;8.168;2024-02-16T03:06:09;6.32;;;1.80;;
21671;SDS011;10997;52.242;8.168;2024-02-16T03:11:09;7.75;;;2.08;;
21671;SDS011;10997;52.242;8.168;2024-02-16T03:16:11;4.20;;;1.75;;
21671;SDS011;10997;52.242;8.168;2024-02-16T03:21:15;5.97;;;2.10;;
21671;SDS011;10997;52.242;8.168;2024-02-16T03:26:16;5.30;;;1.65;;
21671;SDS011;10997;52.242;8.168;2024-02-16T03:31:19;4.18;;;2.20;;
21671;SDS011;10997;52.242;8.168;2024-02-16T03:36:21;3.85;;;1.80;;
21671;SDS011;10997;52.242;8.168;2024-02-16T03:41:22;4.05;;;1.80;;
21671;SDS011;10997;52.242;8.168;2024-02-16T03:46:23;3.92;;;1.90;;
21671;SDS011;10997;52.242;8.168;2024-02-16T03:51:24;4.55;;;2.00;;
21671;SDS011;10997;52.242;8.168;2024-02-16T03:56:27;2.95;;;1.70;;
21671;SDS011;10997;52.242;8.168;2024-02-16T04:01:28;4.15;;;1.65;;
21671;SDS011;10997;52.242;8.168;2024-02-16T04:06:28;5.55;;;2.00;;
21671;SDS011;10997;52.242;8.168;2024-02-16T04:11:29;2.78;;;1.85;;
21671;SDS011;10997;52.242;8.168;2024-02-16T04:16:30;5.88;;;1.88;;
21671;SDS011;10997;52.242;8.168;2024-02-16T04:21:31;7.38;;;1.80;;
21671;SDS011;10997;52.242;8.168;2024-02-16T04:26:32;5.15;;;1.90;;
21671;SDS011;10997;52.242;8.168;2024-02-16T04:31:32;3.60;;;1.92;;
21671;SDS011;10997;52.242;8.168;2024-02-16T04:36:33;5.68;;;2.08;;
21671;SDS011;10997;52.242;8.168;2024-02-16T04:41:34;3.60;;;1.73;;
21671;SDS011;10997;52.242;8.168;2024-02-16T04:46:34;5.00;;;1.90;;
21671;SDS011;10997;52.242;8.168;2024-02-16T04:51:35;4.15;;;1.65;;
21671;SDS011;10997;52.242;8.168;2024-02-16T04:56:39;2.90;;;1.70;;
21671;SDS011;10997;52.242;8.168;2024-02-16T05:01:40;5.03;;;2.00;;
21671;SDS011;10997;52.242;8.168;2024-02-16T05:06:40;5.18;;;1.67;;
21671;SDS011;10997;52.242;8.168;2024-02-16T05:11:41;4.95;;;1.70;;
21671;SDS011;10997;52.242;8.168;2024-02-16T05:16:45;2.50;;;1.65;;
21671;SDS011;10997;52.242;8.168;2024-02-16T05:21:46;4.70;;;2.03;;
21671;SDS011;10997;52.242;8.168;2024-02-16T05:26:46;6.68;;;1.77;;
21671;SDS011;10997;52.242;8.168;2024-02-16T05:31:50;5.55;;;2.00;;
21671;SDS011;10997;52.242;8.168;2024-02-16T05:36:51;3.72;;;1.73;;
21671;SDS011;10997;52.242;8.168;2024-02-16T05:41:52;4.75;;;1.90;;
21671;SDS011;10997;52.242;8.168;2024-02-16T05:46:53;5.88;;;1.80;;
21671;SDS011;10997;52.242;8.168;2024-02-16T05:51:54;6.03;;;1.80;;
21671;SDS011;10997;52.242;8.168;2024-02-16T05:57:13;5.30;;;2.10;;
21671;SDS011;10997;52.242;8.168;2024-02-16T06:02:14;5.00;;;1.95;;
21671;SDS011;10997;52.242;8.168;2024-02-16T06:07:15;5.40;;;1.92;;
21671;SDS011;10997;52.242;8.168;2024-02-16T06:12:15;7.07;;;2.00;;
21671;SDS011;10997;52.242;8.168;2024-02-16T06:17:16;5.03;;;1.95;;
21671;SDS011;10997;52.242;8.168;2024-02-16T06:22:17;5.00;;;2.00;;
21671;SDS011;10997;52.242;8.168;2024-02-16T06:27:17;5.20;;;1.90;;
21671;SDS011;10997;52.242;8.168;2024-02-16T06:32:19;4.20;;;1.98;;
21671;SDS011;10997;52.242;8.168;2024-02-16T06:37:20;5.60;;;1.95;;
21671;SDS011;10997;52.242;8.168;2024-02-16T06:42:20;5.88;;;2.10;;
21671;SDS011;10997;52.242;8.168;2024-02-16T06:47:21;3.97;;;2.08;;
21671;SDS011;10997;52.242;8.168;2024-02-16T06:52:23;5.22;;;2.45;;
21671;SDS011;10997;52.242;8.168;2024-02-16T06:57:24;5.70;;;2.40;;
21671;SDS011;10997;52.242;8.168;2024-02-16T07:02:25;4.47;;;2.10;;
21671;SDS011;10997;52.242;8.168;2024-02-16T07:07:25;5.55;;;2.05;;
21671;SDS011;10997;52.242;8.168;2024-02-16T07:12:26;4.47;;;2.40;;
21671;SDS011;10997;52.242;8.168;2024-02-16T07:17:27;3.90;;;2.10;;
21671;SDS011;10997;52.242;8.168;2024-02-16T07:22:27;6.63;;;2.40;;
21671;SDS011;10997;52.242;8.168;2024-02-16T07:27:28;5.90;;;2.13;;
21671;SDS011;10997;52.242;8.168;2024-02-16T07:32:29;5.18;;;1.92;;
21671;SDS011;10997;52.242;8.168;2024-02-16T07:37:30;4.00;;;1.92;;
21671;SDS011;10997;52.242;8.168;2024-02-16T07:42:30;4.72;;;2.40;;
21671;SDS011;10997;52.242;8.168;2024-02-16T07:47:31;5.07;;;2.45;;
21671;SDS011;10997;52.242;8.168;2024-02-16T07:52:32;5.95;;;2.60;;
21671;SDS011;10997;52.242;8.168;2024-02-16T07:57:33;5.82;;;2.70;;
21671;SDS011;10997;52.242;8.168;2024-02-16T08:02:34;5.93;;;2.33;;
21671;SDS011;10997;52.242;8.168;2024-02-16T08:07:35;6.05;;;1.85;;
21671;SDS011;10997;52.242;8.168;2024-02-16T08:12:35;7.50;;;2.40;;
21671;SDS011;10997;52.242;8.168;2024-02-16T08:17:36;3.70;;;2.22;;
21671;SDS011;10997;52.242;8.168;2024-02-16T08:22:37;4.80;;;2.42;;
21671;SDS011;10997;52.242;8.168;2024-02-16T08:27:38;4.68;;;2.30;;
21671;SDS011;10997;52.242;8.168;2024-02-16T08:32:38;7.53;;;2.47;;
21671;SDS011;10997;52.242;8.168;2024-02-16T08:37:39;5.57;;;2.47;;
21671;SDS011;10997;52.242;8.168;2024-02-16T08:42:41;5.97;;;2.35;;
21671;SDS011;10997;52.242;8.168;2024-02-16T08:47:44;6.40;;;2.78;;
21671;SDS011;10997;52.242;8.168;2024-02-16T08:52:45;4.80;;;2.00;;
21671;SDS011;10997;52.242;8.168;2024-02-16T08:57:45;7.55;;;2.83;;
21671;SDS011;10997;52.242;8.168;2024-02-16T09:02:46;5.40;;;2.50;;
21671;SDS011;10997;52.242;8.168;2024-02-16T09:07:47;5.90;;;2.70;;
21671;SDS011;10997;52.242;8.168;2024-02-16T09:12:47;4.75;;;2.60;;
21671;SDS011;10997;52.242;8.168;2024-02-16T09:17:48;5.55;;;2.58;;
21671;SDS011;10997;52.242;8.168;2024-02-16T09:22:49;6.80;;;2.70;;
21671;SDS011;10997;52.242;8.168;2024-02-16T09:27:49;7.18;;;2.70;;
21671;SDS011;10997;52.242;8.168;2024-02-16T09:32:50;8.05;;;2.83;;
21671;SDS011;10997;52.242;8.168;2024-02-16T09:37:51;4.88;;;2.90;;
21671;SDS011;10997;52.242;8.168;2024-02-16T09:42:51;6.20;;;2.88;;
21671;SDS011;10997;52.242;8.168;2024-02-16T09:47:52;7.13;;;3.03;;
21671;SDS011;10997;52.242;8.168;2024-02-16T09:52:56;6.88;;;3.17;;
21671;SDS011;10997;52.242;8.168;2024-02-16T09:58:00;7.70;;;3.28;;
21671;SDS011;10997;52.242;8.168;2024-02-16T10:03:01;5.97;;;2.97;;
21671;SDS011;10997;52.242;8.168;2024-02-16T10:08:10;5.68;;;3.03;;
21671;SDS011;10997;52.242;8.168;2024-02-16T10:13:12;6.45;;;3.60;;
21671;SDS011;10997;52.242;8.168;2024-02-16T10:18:13;8.32;;;3.17;;
21671;SDS011;10997;52.242;8.168;2024-02-16T10:23:13;5.90;;;3.20;;
21671;SDS011;10997;52.242;8.168;2024-02-16T10:28:15;8.20;;;3.38;;
21671;SDS011;10997;52.242;8.168;2024-02-16T10:33:17;8.43;;;3.70;;
21671;SDS011;10997;52.242;8.168;2024-02-16T10:38:17;5.97;;;3.15;;
21671;SDS011;10997;52.242;8.168;2024-02-16T10:43:19;7.78;;;3.45;;
21671;SDS011;10997;52.242;8.168;2024-02-16T10:48:21;7.00;;;3.42;;
21671;SDS011;10997;52.242;8.168;2024-02-16T10:53:26;9.40;;;3.10;;
21671;SDS011;10997;52.242;8.168;2024-02-16T10:58:28;5.85;;;3.00;;
21671;SDS011;10997;52.242;8.168;2024-02-16T11:03:31;10.75;;;3.50;;
21671;SDS011;10997;52.242;8.168;2024-02-16T11:08:32;8.85;;;3.50;;
21671;SDS011;10997;52.242;8.168;2024-02-16T11:13:38;5.70;;;3.20;;
21671;SDS011;10997;52.242;8.168;2024-02-16T11:18:41;6.88;;;3.20;;
21671;SDS011;10997;52.242;8.168;2024-02-16T11:23:46;7.63;;;3.72;;
21671;SDS011;10997;52.242;8.168;2024-02-16T11:28:48;8.75;;;3.78;;
21671;SDS011;10997;52.242;8.168;2024-02-16T11:33:48;6.88;;;3.55;;
21671;SDS011;10997;52.242;8.168;2024-02-16T11:38:50;8.82;;;3.45;;
21671;SDS011;10997;52.242;8.168;2024-02-16T11:43:58;7.25;;;3.83;;
21671;SDS011;10997;52.242;8.168;2024-02-16T11:49:06;7.78;;;3.60;;
21671;SDS011;10997;52.242;8.168;2024-02-16T11:54:08;8.27;;;3.45;;
21671;SDS011;10997;52.242;8.168;2024-02-16T11:59:09;9.25;;;3.88;;
21671;SDS011;10997;52.242;8.168;2024-02-16T12:04:19;10.50;;;3.97;;
21671;SDS011;10997;52.242;8.168;2024-02-16T12:09:20;8.95;;;3.90;;
21671;SDS011;10997;52.242;8.168;2024-02-16T12:14:22;11.85;;;3.83;;
21671;SDS011;10997;52.242;8.168;2024-02-16T12:19:23;11.10;;;4.40;;
21671;SDS011;10997;52.242;8.168;2024-02-16T12:24:24;10.52;;;4.60;;
21671;SDS011;10997;52.242;8.168;2024-02-16T12:29:25;8.75;;;4.20;;
21671;SDS011;10997;52.242;8.168;2024-02-16T12:34:25;10.60;;;4.60;;
21671;SDS011;10997;52.242;8.168;2024-02-16T12:39:26;12.48;;;4.70;;
21671;SDS011;10997;52.242;8.168;2024-02-16T12:44:27;13.75;;;4.70;;
21671;SDS011;10997;52.242;8.168;2024-02-16T12:49:27;7.68;;;4.75;;
21671;SDS011;10997;52.242;8.168;2024-02-16T12:54:28;10.00;;;5.30;;
21671;SDS011;10997;52.242;8.168;2024-02-16T12:59:29;10.68;;;5.50;;
21671;SDS011;10997;52.242;8.168;2024-02-16T13:04:29;10.95;;;5.78;;
21671;SDS011;10997;52.242;8.168;2024-02-16T13:09:32;13.38;;;5.97;;
21671;SDS011;10997;52.242;8.168;2024-02-16T13:14:32;11.48;;;6.03;;
21671;SDS011;10997;52.242;8.168;2024-02-16T13:19:33;16.45;;;6.45;;
21671;SDS011;10997;52.242;8.168;2024-02-16T13:24:34;13.70;;;6.45;;
21671;SDS011;10997;52.242;8.168;2024-02-16T13:29:34;13.95;;;6.50;;
21671;SDS011;10997;52.242;8.168;2024-02-16T13:34:35;11.80;;;7.03;;
21671;SDS011;10997;52.242;8.168;2024-02-16T13:39:36;24.88;;;16.48;;
21671;SDS011;10997;52.242;8.168;2024-02-16T13:44:36;13.77;;;6.45;;
21671;SDS011;10997;52.242;8.168;2024-02-16T13:49:37;13.48;;;7.22;;
21671;SDS011;10997;52.242;8.168;2024-02-16T13:54:38;13.48;;;7.63;;
21671;SDS011;10997;52.242;8.168;2024-02-16T13:59:39;11.27;;;7.07;;
21671;SDS011;10997;52.242;8.168;2024-02-16T14:04:39;14.90;;;6.85;;
21671;SDS011;10997;52.242;8.168;2024-02-16T14:09:41;14.88;;;7.57;;
21671;SDS011;10997;52.242;8.168;2024-02-16T14:14:41;15.35;;;8.38;;
21671;SDS011;10997;52.242;8.168;2024-02-16T14:19:42;16.10;;;8.18;;
21671;SDS011;10997;52.242;8.168;2024-02-16T14:24:42;17.15;;;8.95;;
21671;SDS011;10997;52.242;8.168;2024-02-16T14:29:43;15.70;;;8.95;;
21671;SDS011;10997;52.242;8.168;2024-02-16T14:34:44;16.38;;;10.43;;
21671;SDS011;10997;52.242;8.168;2024-02-16T14:39:44;16.05;;;10.55;;
21671;SDS011;10997;52.242;8.168;2024-02-16T14:44:45;15.02;;;11.35;;
21671;SDS011;10997;52.242;8.168;2024-02-16T14:49:46;13.55;;;10.40;;
21671;SDS011;10997;52.242;8.168;2024-02-16T14:54:47;19.55;;;11.73;;
21671;SDS011;10997;52.242;8.168;2024-02-16T14:59:47;15.77;;;11.85;;
21671;SDS011;10997;52.242;8.168;2024-02-16T15:04:49;17.58;;;12.45;;
21671;SDS011;10997;52.242;8.168;2024-02-16T15:09:50;14.55;;;11.82;;
21671;SDS011;10997;52.242;8.168;2024-02-16T15:14:50;16.63;;;11.25;;
21671;SDS011;10997;52.242;8.168;2024-02-16T15:19:51;16.38;;;11.95;;
21671;SDS011;10997;52.242;8.168;2024-02-16T15:24:53;12.93;;;10.95;;
21671;SDS011;10997;52.242;8.168;2024-02-16T15:29:53;12.48;;;10.20;;
21671;SDS011;10997;52.242;8.168;2024-02-16T15:34:55;14.40;;;10.20;;
21671;SDS011;10997;52.242;8.168;2024-02-16T15:39:55;12.23;;;10.55;;
21671;SDS011;10997;52.242;8.168;2024-02-16T15:44:57;14.95;;;10.20;;
21671;SDS011;10997;52.242;8.168;2024-02-16T15:49:59;15.25;;;9.98;;
21671;SDS011;10997;52.242;8.168;2024-02-16T15:55:00;13.05;;;9.98;;
21671;SDS011;10997;52.242;8.168;2024-02-16T16:00:01;13.88;;;9.85;;
21671;SDS011;10997;52.242;8.168;2024-02-16T16:05:03;15.50;;;10.27;;
21671;SDS011;10997;52.242;8.168;2024-02-16T16:10:04;13.57;;;9.13;;
21671;SDS011;10997;52.242;8.168;2024-02-16T16:15:05;14.20;;;9.27;;
21671;SDS011;10997;52.242;8.168;2024-02-16T16:20:06;12.13;;;9.45;;
21671;SDS011;10997;52.242;8.168;2024-02-16T16:25:07;12.05;;;9.20;;
21671;SDS011;10997;52.242;8.168;2024-02-16T16:30:08;11.80;;;9.57;;
21671;SDS011;10997;52.242;8.168;2024-02-16T16:35:09;12.45;;;9.75;;
21671;SDS011;10997;52.242;8.168;2024-02-16T16:40:10;14.88;;;10.45;;
21671;SDS011;10997;52.242;8.168;2024-02-16T16:45:11;13.57;;;11.27;;
21671;SDS011;10997;52.242;8.168;2024-02-16T16:50:15;12.88;;;10.07;;
21671;SDS011;10997;52.242;8.168;2024-02-16T16:55:19;13.32;;;10.57;;
21671;SDS011;10997;52.242;8.168;2024-02-16T17:00:20;11.20;;;8.82;;
21671;SDS011;10997;52.242;8.168;2024-02-16T17:05:21;9.98;;;8.98;;
21671;SDS011;10997;52.242;8.168;2024-02-16T17:10:21;11.60;;;9.50;;
21671;SDS011;10997;52.242;8.168;2024-02-16T17:15:22;10.23;;;9.15;;
21671;SDS011;10997;52.242;8.168;2024-02-16T17:20:22;12.02;;;8.27;;
21671;SDS011;10997;52.242;8.168;2024-02-16T17:25:24;11.10;;;6.90;;
21671;SDS011;10997;52.242;8.168;2024-02-16T17:30:25;6.43;;;5.82;;
21671;SDS011;10997;52.242;8.168;2024-02-16T17:35:26;7.30;;;5.85;;
21671;SDS011;10997;52.242;8.168;2024-02-16T17:40:27;6.68;;;5.45;;
21671;SDS011;10997;52.242;8.168;2024-02-16T17:45:28;5.30;;;4.80;;
21671;SDS011;10997;52.242;8.168;2024-02-16T17:50:30;6.18;;;5.57;;
21671;SDS011;10997;52.242;8.168;2024-02-16T17:55:31;7.47;;;5.38;;
21671;SDS011;10997;52.242;8.168;2024-02-16T18:00:32;6.45;;;5.40;;
21671;SDS011;10997;52.242;8.168;2024-02-16T18:05:32;6.80;;;5.30;;
21671;SDS011;10997;52.242;8.168;2024-02-16T18:10:33;5.15;;;4.60;;
21671;SDS011;10997;52.242;8.168;2024-02-16T18:15:35;5.88;;;4.85;;
21671;SDS011;10997;52.242;8.168;2024-02-16T18:20:36;5.05;;;4.40;;
21671;SDS011;10997;52.242;8.168;2024-02-16T18:25:36;4.65;;;3.90;;
21671;SDS011;10997;52.242;8.168;2024-02-16T18:30:37;10.02;;;8.75;;
21671;SDS011;10997;52.242;8.168;2024-02-16T18:35:40;4.93;;;4.45;;
21671;SDS011;10997;52.242;8.168;2024-02-16T18:40:40;5.30;;;4.50;;
21671;SDS011;10997;52.242;8.168;2024-02-16T18:45:41;5.28;;;4.53;;
21671;SDS011;10997;52.242;8.168;2024-02-16T18:50:42;5.18;;;4.15;;
21671;SDS011;10997;52.242;8.168;2024-02-16T18:55:42;6.03;;;5.25;;
21671;SDS011;10997;52.242;8.168;2024-02-16T19:00:45;6.43;;;5.43;;
21671;SDS011;10997;52.242;8.168;2024-02-16T19:05:46;8.07;;;6.18;;
21671;SDS011;10997;52.242;8.168;2024-02-16T19:10:47;6.47;;;5.82;;
21671;SDS011;10997;52.242;8.168;2024-02-16T19:15:47;9.68;;;7.18;;
21671;SDS011;10997;52.242;8.168;2024-02-16T19:20:48;8.70;;;7.80;;
21671;SDS011;10997;52.242;8.168;2024-02-16T19:25:53;11.90;;;10.70;;
21671;SDS011;10997;52.242;8.168;2024-02-16T19:30:55;11.73;;;10.10;;
21671;SDS011;10997;52.242;8.168;2024-02-16T19:35:55;11.27;;;10.15;;
21671;SDS011;10997;52.242;8.168;2024-02-16T19:40:56;12.65;;;10.43;;
21671;SDS011;10997;52.242;8.168;2024-02-16T19:45:58;11.77;;;9.77;;
21671;SDS011;10997;52.242;8.168;2024-02-16T19:50:59;11.63;;;10.30;;
21671;SDS011;10997;52.242;8.168;2024-02-16T19:55:59;11.02;;;8.82;;
21671;SDS011;10997;52.242;8.168;2024-02-16T20:01:00;9.40;;;8.40;;
21671;SDS011;10997;52.242;8.168;2024-02-16T20:06:01;9.88;;;8.20;;
21671;SDS011;10997;52.242;8.168;2024-02-16T20:11:02;11.18;;;8.70;;
21671;SDS011;10997;52.242;8.168;2024-02-16T20:16:03;10.52;;;9.43;;
21671;SDS011;10997;52.242;8.168;2024-02-16T20:21:04;13.50;;;9.77;;
21671;SDS011;10997;52.242;8.168;2024-02-16T20:26:05;12.43;;;10.40;;
21671;SDS011;10997;52.242;8.168;2024-02-16T20:31:05;13.35;;;11.05;;
21671;SDS011;10997;52.242;8.168;2024-02-16T20:36:09;15.38;;;11.82;;
21671;SDS011;10997;52.242;8.168;2024-02-16T20:41:09;15.40;;;12.25;;
21671;SDS011;10997;52.242;8.168;2024-02-16T20:46:10;16.08;;;13.18;;
21671;SDS011;10997;52.242;8.168;2024-02-16T20:51:11;17.90;;;13.82;;
21671;SDS011;10997;52.242;8.168;2024-02-16T20:56:12;18.45;;;13.60;;
21671;SDS011;10997;52.242;8.168;2024-02-16T21:01:15;18.90;;;14.27;;
21671;SDS011;10997;52.242;8.168;2024-02-16T21:06:16;19.45;;;14.35;;
21671;SDS011;10997;52.242;8.168;2024-02-16T21:11:17;22.23;;;15.77;;
21671;SDS011;10997;52.242;8.168;2024-02-16T21:16:17;22.85;;;15.23;;
21671;SDS011;10997;52.242;8.168;2024-02-16T21:21:18;22.05;;;16.00;;
21671;SDS011;10997;52.242;8.168;2024-02-16T21:26:20;24.98;;;17.27;;
21671;SDS011;10997;52.242;8.168;2024-02-16T21:31:21;22.25;;;17.08;;
21671;SDS011;10997;52.242;8.168;2024-02-16T21:36:21;26.35;;;18.15;;
21671;SDS011;10997;52.242;8.168;2024-02-16T21:41:25;25.48;;;17.23;;
21671;SDS011;10997;52.242;8.168;2024-02-16T21:51:31;28.50;;;20.10;;
21671;SDS011;10997;52.242;8.168;2024-02-16T21:56:34;26.10;;;19.27;;
21671;SDS011;10997;52.242;8.168;2024-02-16T22:01:35;27.50;;;19.48;;
21671;SDS011;10997;52.242;8.168;2024-02-16T22:06:36;28.55;;;20.40;;
21671;SDS011;10997;52.242;8.168;2024-02-16T22:11:37;29.27;;;21.00;;
21671;SDS011;10997;52.242;8.168;2024-02-16T22:16:38;29.38;;;20.27;;
21671;SDS011;10997;52.242;8.168;2024-02-16T22:21:39;28.08;;;21.02;;
21671;SDS011;10997;52.242;8.168;2024-02-16T22:26:40;28.80;;;20.00;;
21671;SDS011;10997;52.242;8.168;2024-02-16T22:31:40;27.20;;;20.08;;
21671;SDS011;10997;52.242;8.168;2024-02-16T22:36:41;29.67;;;20.58;;
21671;SDS011;10997;52.242;8.168;2024-02-16T22:41:42;31.48;;;22.27;;
21671;SDS011;10997;52.242;8.168;2024-02-16T22:46:43;32.80;;;22.45;;
21671;SDS011;10997;52.242;8.168;2024-02-16T22:51:43;32.95;;;22.58;;
21671;SDS011;10997;52.242;8.168;2024-02-16T22:56:44;39.35;;;22.45;;
21671;SDS011;10997;52.242;8.168;2024-02-16T23:01:44;32.60;;;23.20;;
21671;SDS011;10997;52.242;8.168;2024-02-16T23:06:45;32.40;;;22.05;;
21671;SDS011;10997;52.242;8.168;2024-02-16T23:11:46;31.20;;;21.55;;
21671;SDS011;10997;52.242;8.168;2024-02-16T23:16:46;28.95;;;18.52;;
21671;SDS011;10997;52.242;8.168;2024-02-16T23:21:47;29.50;;;19.90;;
21671;SDS011;10997;52.242;8.168;2024-02-16T23:26:48;33.30;;;21.23;;
21671;SDS011;10997;52.242;8.168;2024-02-16T23:31:48;34.00;;;21.38;;
21671;SDS011;10997;52.242;8.168;2024-02-16T23:36:49;30.13;;;21.88;;
21671;SDS011;10997;52.242;8.168;2024-02-16T23:41:50;43.08;;;25.25;;
21671;SDS011;10997;52.242;8.168;2024-02-16T23:46:50;36.85;;;25.38;;
21671;SDS011;10997;52.242;8.168;2024-02-16T23:51:52;41.33;;;25.58;;
21671;SDS011;10997;52.242;8.168;2024-02-16T23:56:53;39.75;;;26.15;;
